sensor_id;sensor_type;location;lat;lon;timestamp;P1;durP1;ratioP1;P2;durP2;ratioP2
14247;SDS011;7208;49.826;6.004;2023-03-05T00:01:31;10.13;;;8.83;;
14247;SDS011;7208;49.826;6.004;2023-03-05T00:03:57;8.20;;;7.03;;
14247;SDS011;7208;49.826;6.004;2023-03-05T00:06:24;11.47;;;7.60;;
14247;SDS011;7208;49.826;6.004;2023-03-05T00:08:51;11.27;;;8.33;;
14247;SDS011;7208;49.826;6.004;2023-03-05T00:11:18;11.23;;;8.87;;
14247;SDS011;7208;49.826;6.004;2023-03-05T00:13:44;9.50;;;7.83;;
14247;SDS011;7208;49.826;6.004;2023-03-05T00:16:12;10.27;;;8.53;;
14247;SDS011;7208;49.826;6.004;2023-03-05T00:18:38;10.30;;;7.57;;
14247;SDS011;7208;49.826;6.004;2023-03-05T00:21:05;9.30;;;7.60;;
14247;SDS011;7208;49.826;6.004;2023-03-05T00:23:31;10.23;;;8.17;;
14247;SDS011;7208;49.826;6.004;2023-03-05T00:25:59;8.53;;;7.17;;
14247;SDS011;7208;49.826;6.004;2023-03-05T00:28:26;9.13;;;8.07;;
14247;SDS011;7208;49.826;6.004;2023-03-05T00:30:52;11.43;;;8.23;;
14247;SDS011;7208;49.826;6.004;2023-03-05T00:33:18;9.80;;;7.77;;
14247;SDS011;7208;49.826;6.004;2023-03-05T00:35:44;10.97;;;8.37;;
14247;SDS011;7208;49.826;6.004;2023-03-05T00:38:11;11.83;;;9.07;;
14247;SDS011;7208;49.826;6.004;2023-03-05T00:40:38;13.03;;;8.57;;
14247;SDS011;7208;49.826;6.004;2023-03-05T00:43:04;11.77;;;8.50;;
14247;SDS011;7208;49.826;6.004;2023-03-05T00:45:31;11.97;;;9.10;;
14247;SDS011;7208;49.826;6.004;2023-03-05T00:47:57;9.77;;;7.57;;
14247;SDS011;7208;49.826;6.004;2023-03-05T00:50:24;8.73;;;7.57;;
14247;SDS011;7208;49.826;6.004;2023-03-05T00:52:50;11.23;;;8.50;;
14247;SDS011;7208;49.826;6.004;2023-03-05T00:55:16;10.97;;;8.67;;
14247;SDS011;7208;49.826;6.004;2023-03-05T00:57:42;8.93;;;7.13;;
14247;SDS011;7208;49.826;6.004;2023-03-05T01:00:08;8.30;;;6.80;;
14247;SDS011;7208;49.826;6.004;2023-03-05T01:02:35;11.70;;;7.07;;
14247;SDS011;7208;49.826;6.004;2023-03-05T01:05:01;9.87;;;8.00;;
14247;SDS011;7208;49.826;6.004;2023-03-05T01:07:27;9.43;;;7.63;;
14247;SDS011;7208;49.826;6.004;2023-03-05T01:09:53;12.37;;;8.50;;
14247;SDS011;7208;49.826;6.004;2023-03-05T01:12:19;14.23;;;9.63;;
14247;SDS011;7208;49.826;6.004;2023-03-05T01:14:45;10.93;;;8.10;;
14247;SDS011;7208;49.826;6.004;2023-03-05T01:17:11;7.67;;;6.77;;
14247;SDS011;7208;49.826;6.004;2023-03-05T01:19:37;9.00;;;7.73;;
14247;SDS011;7208;49.826;6.004;2023-03-05T01:22:03;10.60;;;7.37;;
14247;SDS011;7208;49.826;6.004;2023-03-05T01:24:29;9.87;;;7.83;;
14247;SDS011;7208;49.826;6.004;2023-03-05T01:26:55;10.17;;;7.23;;
14247;SDS011;7208;49.826;6.004;2023-03-05T01:29:22;7.00;;;6.27;;
14247;SDS011;7208;49.826;6.004;2023-03-05T01:31:48;12.43;;;7.43;;
14247;SDS011;7208;49.826;6.004;2023-03-05T01:34:14;9.67;;;6.73;;
14247;SDS011;7208;49.826;6.004;2023-03-05T01:36:40;7.80;;;6.77;;
14247;SDS011;7208;49.826;6.004;2023-03-05T01:39:06;8.10;;;6.83;;
14247;SDS011;7208;49.826;6.004;2023-03-05T01:41:33;6.50;;;5.83;;
14247;SDS011;7208;49.826;6.004;2023-03-05T01:43:59;6.20;;;5.60;;
14247;SDS011;7208;49.826;6.004;2023-03-05T01:46:29;9.53;;;5.50;;
14247;SDS011;7208;49.826;6.004;2023-03-05T01:48:58;5.57;;;4.97;;
14247;SDS011;7208;49.826;6.004;2023-03-05T01:51:27;7.67;;;4.90;;
14247;SDS011;7208;49.826;6.004;2023-03-05T01:53:53;4.93;;;4.40;;
14247;SDS011;7208;49.826;6.004;2023-03-05T01:56:22;7.77;;;4.20;;
14247;SDS011;7208;49.826;6.004;2023-03-05T01:58:48;5.90;;;4.83;;
14247;SDS011;7208;49.826;6.004;2023-03-05T02:01:15;6.07;;;4.87;;
14247;SDS011;7208;49.826;6.004;2023-03-05T02:03:41;7.70;;;4.97;;
14247;SDS011;7208;49.826;6.004;2023-03-05T02:06:07;5.77;;;4.77;;
14247;SDS011;7208;49.826;6.004;2023-03-05T02:08:34;5.87;;;4.27;;
14247;SDS011;7208;49.826;6.004;2023-03-05T02:11:00;4.83;;;4.13;;
14247;SDS011;7208;49.826;6.004;2023-03-05T02:13:27;4.73;;;4.23;;
14247;SDS011;7208;49.826;6.004;2023-03-05T02:15:55;5.20;;;4.70;;
14247;SDS011;7208;49.826;6.004;2023-03-05T02:18:22;7.77;;;4.97;;
14247;SDS011;7208;49.826;6.004;2023-03-05T02:20:50;5.83;;;4.73;;
14247;SDS011;7208;49.826;6.004;2023-03-05T02:23:16;5.43;;;4.80;;
14247;SDS011;7208;49.826;6.004;2023-03-05T02:25:43;6.43;;;4.30;;
14247;SDS011;7208;49.826;6.004;2023-03-05T02:28:16;5.90;;;3.87;;
14247;SDS011;7208;49.826;6.004;2023-03-05T02:30:43;5.00;;;3.87;;
14247;SDS011;7208;49.826;6.004;2023-03-05T02:33:09;4.30;;;3.90;;
14247;SDS011;7208;49.826;6.004;2023-03-05T02:35:35;6.23;;;4.37;;
14247;SDS011;7208;49.826;6.004;2023-03-05T02:38:01;5.23;;;4.47;;
14247;SDS011;7208;49.826;6.004;2023-03-05T02:40:27;5.97;;;4.40;;
14247;SDS011;7208;49.826;6.004;2023-03-05T02:42:53;5.43;;;3.93;;
14247;SDS011;7208;49.826;6.004;2023-03-05T02:45:19;5.53;;;4.17;;
14247;SDS011;7208;49.826;6.004;2023-03-05T02:47:45;7.63;;;4.47;;
14247;SDS011;7208;49.826;6.004;2023-03-05T02:50:11;5.07;;;3.80;;
14247;SDS011;7208;49.826;6.004;2023-03-05T02:52:37;7.33;;;4.33;;
14247;SDS011;7208;49.826;6.004;2023-03-05T02:55:04;7.00;;;4.73;;
14247;SDS011;7208;49.826;6.004;2023-03-05T02:57:30;4.73;;;3.80;;
14247;SDS011;7208;49.826;6.004;2023-03-05T02:59:56;7.97;;;3.73;;
14247;SDS011;7208;49.826;6.004;2023-03-05T03:02:22;7.00;;;4.07;;
14247;SDS011;7208;49.826;6.004;2023-03-05T03:04:48;4.73;;;4.33;;
14247;SDS011;7208;49.826;6.004;2023-03-05T03:07:14;4.67;;;3.60;;
14247;SDS011;7208;49.826;6.004;2023-03-05T03:09:41;5.30;;;3.87;;
14247;SDS011;7208;49.826;6.004;2023-03-05T03:12:07;3.00;;;2.70;;
14247;SDS011;7208;49.826;6.004;2023-03-05T03:14:34;2.77;;;2.57;;
14247;SDS011;7208;49.826;6.004;2023-03-05T03:17:21;5.00;;;2.93;;
14247;SDS011;7208;49.826;6.004;2023-03-05T03:19:47;4.53;;;2.97;;
14247;SDS011;7208;49.826;6.004;2023-03-05T03:22:14;3.73;;;3.17;;
14247;SDS011;7208;49.826;6.004;2023-03-05T03:24:40;6.03;;;2.77;;
14247;SDS011;7208;49.826;6.004;2023-03-05T03:27:06;3.90;;;2.90;;
14247;SDS011;7208;49.826;6.004;2023-03-05T03:29:32;2.67;;;2.47;;
14247;SDS011;7208;49.826;6.004;2023-03-05T03:31:58;3.00;;;2.73;;
14247;SDS011;7208;49.826;6.004;2023-03-05T03:34:24;4.47;;;2.80;;
14247;SDS011;7208;49.826;6.004;2023-03-05T03:36:50;4.37;;;3.40;;
14247;SDS011;7208;49.826;6.004;2023-03-05T03:39:16;4.47;;;3.60;;
14247;SDS011;7208;49.826;6.004;2023-03-05T03:41:44;4.03;;;3.53;;
14247;SDS011;7208;49.826;6.004;2023-03-05T03:44:10;3.60;;;3.20;;
14247;SDS011;7208;49.826;6.004;2023-03-05T03:46:37;4.37;;;3.13;;
14247;SDS011;7208;49.826;6.004;2023-03-05T03:49:03;4.73;;;3.37;;
14247;SDS011;7208;49.826;6.004;2023-03-05T03:51:29;3.63;;;3.27;;
14247;SDS011;7208;49.826;6.004;2023-03-05T03:53:55;3.57;;;3.17;;
14247;SDS011;7208;49.826;6.004;2023-03-05T03:56:21;3.50;;;3.20;;
14247;SDS011;7208;49.826;6.004;2023-03-05T03:58:49;5.40;;;3.23;;
14247;SDS011;7208;49.826;6.004;2023-03-05T04:01:16;4.13;;;2.97;;
14247;SDS011;7208;49.826;6.004;2023-03-05T04:03:42;4.10;;;2.90;;
14247;SDS011;7208;49.826;6.004;2023-03-05T04:06:08;5.20;;;3.47;;
14247;SDS011;7208;49.826;6.004;2023-03-05T04:08:34;5.63;;;3.40;;
14247;SDS011;7208;49.826;6.004;2023-03-05T04:11:01;5.03;;;3.67;;
14247;SDS011;7208;49.826;6.004;2023-03-05T04:13:27;4.17;;;2.97;;
14247;SDS011;7208;49.826;6.004;2023-03-05T04:15:53;3.57;;;3.27;;
14247;SDS011;7208;49.826;6.004;2023-03-05T04:18:20;4.80;;;3.27;;
14247;SDS011;7208;49.826;6.004;2023-03-05T04:20:46;4.97;;;3.20;;
14247;SDS011;7208;49.826;6.004;2023-03-05T04:23:12;5.07;;;3.57;;
14247;SDS011;7208;49.826;6.004;2023-03-05T04:25:38;5.67;;;3.37;;
14247;SDS011;7208;49.826;6.004;2023-03-05T04:28:04;5.10;;;3.50;;
14247;SDS011;7208;49.826;6.004;2023-03-05T04:30:30;4.03;;;3.43;;
14247;SDS011;7208;49.826;6.004;2023-03-05T04:32:56;3.60;;;3.30;;
14247;SDS011;7208;49.826;6.004;2023-03-05T04:35:22;4.63;;;3.30;;
14247;SDS011;7208;49.826;6.004;2023-03-05T04:37:48;3.80;;;3.10;;
14247;SDS011;7208;49.826;6.004;2023-03-05T04:40:14;5.77;;;3.87;;
14247;SDS011;7208;49.826;6.004;2023-03-05T04:42:42;6.70;;;6.03;;
14247;SDS011;7208;49.826;6.004;2023-03-05T04:45:08;5.70;;;5.13;;
14247;SDS011;7208;49.826;6.004;2023-03-05T04:47:34;4.13;;;3.73;;
14247;SDS011;7208;49.826;6.004;2023-03-05T04:50:01;4.30;;;3.83;;
14247;SDS011;7208;49.826;6.004;2023-03-05T04:52:28;4.30;;;3.90;;
14247;SDS011;7208;49.826;6.004;2023-03-05T04:54:54;5.43;;;3.90;;
14247;SDS011;7208;49.826;6.004;2023-03-05T04:57:20;4.37;;;3.97;;
14247;SDS011;7208;49.826;6.004;2023-03-05T04:59:46;4.20;;;3.77;;
14247;SDS011;7208;49.826;6.004;2023-03-05T05:02:12;6.67;;;4.03;;
14247;SDS011;7208;49.826;6.004;2023-03-05T05:04:38;4.37;;;3.90;;
14247;SDS011;7208;49.826;6.004;2023-03-05T05:07:08;4.13;;;3.70;;
14247;SDS011;7208;49.826;6.004;2023-03-05T05:09:34;4.10;;;3.70;;
14247;SDS011;7208;49.826;6.004;2023-03-05T05:12:00;4.60;;;4.13;;
14247;SDS011;7208;49.826;6.004;2023-03-05T05:14:26;4.63;;;3.80;;
14247;SDS011;7208;49.826;6.004;2023-03-05T05:16:52;6.63;;;6.03;;
14247;SDS011;7208;49.826;6.004;2023-03-05T05:19:18;6.00;;;5.00;;
14247;SDS011;7208;49.826;6.004;2023-03-05T05:21:44;6.53;;;4.80;;
14247;SDS011;7208;49.826;6.004;2023-03-05T05:24:10;4.57;;;4.17;;
14247;SDS011;7208;49.826;6.004;2023-03-05T05:26:36;5.03;;;4.17;;
14247;SDS011;7208;49.826;6.004;2023-03-05T05:29:02;4.63;;;3.83;;
14247;SDS011;7208;49.826;6.004;2023-03-05T05:31:28;4.47;;;3.27;;
14247;SDS011;7208;49.826;6.004;2023-03-05T05:33:54;4.57;;;3.60;;
14247;SDS011;7208;49.826;6.004;2023-03-05T05:36:20;4.87;;;3.60;;
14247;SDS011;7208;49.826;6.004;2023-03-05T05:38:46;6.03;;;4.43;;
14247;SDS011;7208;49.826;6.004;2023-03-05T05:41:13;5.43;;;4.07;;
14247;SDS011;7208;49.826;6.004;2023-03-05T05:43:40;5.13;;;3.90;;
14247;SDS011;7208;49.826;6.004;2023-03-05T05:46:07;6.03;;;4.23;;
14247;SDS011;7208;49.826;6.004;2023-03-05T05:48:34;3.80;;;3.50;;
14247;SDS011;7208;49.826;6.004;2023-03-05T05:51:04;4.93;;;3.83;;
14247;SDS011;7208;49.826;6.004;2023-03-05T05:53:30;4.37;;;3.97;;
14247;SDS011;7208;49.826;6.004;2023-03-05T05:55:56;4.77;;;3.97;;
14247;SDS011;7208;49.826;6.004;2023-03-05T05:58:22;4.67;;;3.60;;
14247;SDS011;7208;49.826;6.004;2023-03-05T06:00:48;3.87;;;3.40;;
14247;SDS011;7208;49.826;6.004;2023-03-05T06:03:14;5.33;;;4.10;;
14247;SDS011;7208;49.826;6.004;2023-03-05T06:05:41;4.73;;;4.33;;
14247;SDS011;7208;49.826;6.004;2023-03-05T06:08:07;4.93;;;4.40;;
14247;SDS011;7208;49.826;6.004;2023-03-05T06:10:33;5.43;;;3.70;;
14247;SDS011;7208;49.826;6.004;2023-03-05T06:12:59;5.40;;;3.63;;
14247;SDS011;7208;49.826;6.004;2023-03-05T06:15:25;6.20;;;4.60;;
14247;SDS011;7208;49.826;6.004;2023-03-05T06:17:51;5.20;;;3.83;;
14247;SDS011;7208;49.826;6.004;2023-03-05T06:20:18;3.97;;;3.57;;
14247;SDS011;7208;49.826;6.004;2023-03-05T06:22:44;7.40;;;4.23;;
14247;SDS011;7208;49.826;6.004;2023-03-05T06:25:10;4.87;;;3.83;;
14247;SDS011;7208;49.826;6.004;2023-03-05T06:27:36;5.40;;;3.90;;
14247;SDS011;7208;49.826;6.004;2023-03-05T06:30:03;4.37;;;3.83;;
14247;SDS011;7208;49.826;6.004;2023-03-05T06:32:29;5.63;;;4.10;;
14247;SDS011;7208;49.826;6.004;2023-03-05T06:34:55;7.03;;;4.03;;
14247;SDS011;7208;49.826;6.004;2023-03-05T06:37:22;5.67;;;4.80;;
14247;SDS011;7208;49.826;6.004;2023-03-05T06:39:48;5.67;;;5.17;;
14247;SDS011;7208;49.826;6.004;2023-03-05T06:42:14;7.27;;;5.40;;
14247;SDS011;7208;49.826;6.004;2023-03-05T06:44:42;8.57;;;4.93;;
14247;SDS011;7208;49.826;6.004;2023-03-05T06:47:08;5.10;;;4.50;;
14247;SDS011;7208;49.826;6.004;2023-03-05T06:49:37;10.77;;;4.63;;
14247;SDS011;7208;49.826;6.004;2023-03-05T06:52:04;7.73;;;4.70;;
14247;SDS011;7208;49.826;6.004;2023-03-05T06:54:30;4.43;;;4.03;;
14247;SDS011;7208;49.826;6.004;2023-03-05T06:56:56;7.07;;;5.00;;
14247;SDS011;7208;49.826;6.004;2023-03-05T06:59:23;7.37;;;5.30;;
14247;SDS011;7208;49.826;6.004;2023-03-05T07:01:49;4.67;;;4.20;;
14247;SDS011;7208;49.826;6.004;2023-03-05T07:04:15;4.53;;;4.13;;
14247;SDS011;7208;49.826;6.004;2023-03-05T07:06:41;3.63;;;3.30;;
14247;SDS011;7208;49.826;6.004;2023-03-05T07:09:09;8.43;;;3.90;;
14247;SDS011;7208;49.826;6.004;2023-03-05T07:11:35;4.73;;;3.83;;
14247;SDS011;7208;49.826;6.004;2023-03-05T07:14:01;4.07;;;3.67;;
14247;SDS011;7208;49.826;6.004;2023-03-05T07:16:29;5.23;;;3.90;;
14247;SDS011;7208;49.826;6.004;2023-03-05T07:18:55;4.27;;;3.83;;
14247;SDS011;7208;49.826;6.004;2023-03-05T07:21:23;5.53;;;4.23;;
14247;SDS011;7208;49.826;6.004;2023-03-05T07:23:49;3.57;;;3.27;;
14247;SDS011;7208;49.826;6.004;2023-03-05T07:26:15;7.93;;;3.10;;
14247;SDS011;7208;49.826;6.004;2023-03-05T07:28:41;4.13;;;3.60;;
14247;SDS011;7208;49.826;6.004;2023-03-05T07:31:10;7.90;;;2.90;;
14247;SDS011;7208;49.826;6.004;2023-03-05T07:33:37;4.47;;;3.33;;
14247;SDS011;7208;49.826;6.004;2023-03-05T07:36:05;5.23;;;3.53;;
14247;SDS011;7208;49.826;6.004;2023-03-05T07:38:32;4.43;;;3.50;;
14247;SDS011;7208;49.826;6.004;2023-03-05T07:41:02;2.93;;;2.73;;
14247;SDS011;7208;49.826;6.004;2023-03-05T07:43:28;4.80;;;3.23;;
14247;SDS011;7208;49.826;6.004;2023-03-05T07:45:54;3.80;;;2.70;;
14247;SDS011;7208;49.826;6.004;2023-03-05T07:48:20;3.30;;;3.00;;
14247;SDS011;7208;49.826;6.004;2023-03-05T07:50:46;3.03;;;2.67;;
14247;SDS011;7208;49.826;6.004;2023-03-05T07:53:12;3.17;;;2.80;;
14247;SDS011;7208;49.826;6.004;2023-03-05T07:55:42;3.30;;;2.90;;
14247;SDS011;7208;49.826;6.004;2023-03-05T07:58:08;3.23;;;2.77;;
14247;SDS011;7208;49.826;6.004;2023-03-05T08:00:35;3.03;;;2.73;;
14247;SDS011;7208;49.826;6.004;2023-03-05T08:03:01;3.37;;;2.97;;
14247;SDS011;7208;49.826;6.004;2023-03-05T08:05:27;3.63;;;3.33;;
14247;SDS011;7208;49.826;6.004;2023-03-05T08:07:53;2.70;;;2.50;;
14247;SDS011;7208;49.826;6.004;2023-03-05T08:10:19;3.67;;;2.60;;
14247;SDS011;7208;49.826;6.004;2023-03-05T08:12:45;4.83;;;2.87;;
14247;SDS011;7208;49.826;6.004;2023-03-05T08:15:11;3.40;;;3.10;;
14247;SDS011;7208;49.826;6.004;2023-03-05T08:17:37;8.07;;;2.97;;
14247;SDS011;7208;49.826;6.004;2023-03-05T08:20:03;3.13;;;2.83;;
14247;SDS011;7208;49.826;6.004;2023-03-05T08:22:33;2.90;;;2.63;;
14247;SDS011;7208;49.826;6.004;2023-03-05T08:24:59;3.23;;;2.93;;
14247;SDS011;7208;49.826;6.004;2023-03-05T08:27:26;5.83;;;2.73;;
14247;SDS011;7208;49.826;6.004;2023-03-05T08:29:52;4.00;;;3.60;;
14247;SDS011;7208;49.826;6.004;2023-03-05T08:32:18;2.80;;;2.60;;
14247;SDS011;7208;49.826;6.004;2023-03-05T08:34:44;2.87;;;2.67;;
14247;SDS011;7208;49.826;6.004;2023-03-05T08:37:10;3.27;;;3.03;;
14247;SDS011;7208;49.826;6.004;2023-03-05T08:39:36;3.40;;;2.97;;
14247;SDS011;7208;49.826;6.004;2023-03-05T08:42:02;3.43;;;3.13;;
14247;SDS011;7208;49.826;6.004;2023-03-05T08:44:28;2.63;;;2.43;;
14247;SDS011;7208;49.826;6.004;2023-03-05T08:46:54;3.17;;;2.80;;
14247;SDS011;7208;49.826;6.004;2023-03-05T08:49:21;2.93;;;2.70;;
14247;SDS011;7208;49.826;6.004;2023-03-05T08:51:47;3.17;;;2.73;;
14247;SDS011;7208;49.826;6.004;2023-03-05T08:54:13;3.70;;;3.37;;
14247;SDS011;7208;49.826;6.004;2023-03-05T08:56:39;3.03;;;2.33;;
14247;SDS011;7208;49.826;6.004;2023-03-05T08:59:05;2.93;;;2.73;;
14247;SDS011;7208;49.826;6.004;2023-03-05T09:01:32;3.50;;;2.43;;
14247;SDS011;7208;49.826;6.004;2023-03-05T09:03:58;2.67;;;2.47;;
14247;SDS011;7208;49.826;6.004;2023-03-05T09:06:25;2.57;;;2.37;;
14247;SDS011;7208;49.826;6.004;2023-03-05T09:08:51;4.50;;;3.17;;
14247;SDS011;7208;49.826;6.004;2023-03-05T09:11:17;2.57;;;2.37;;
14247;SDS011;7208;49.826;6.004;2023-03-05T09:13:43;4.97;;;2.30;;
14247;SDS011;7208;49.826;6.004;2023-03-05T09:16:10;2.80;;;2.60;;
14247;SDS011;7208;49.826;6.004;2023-03-05T09:18:36;2.23;;;2.13;;
14247;SDS011;7208;49.826;6.004;2023-03-05T09:21:05;2.70;;;2.50;;
14247;SDS011;7208;49.826;6.004;2023-03-05T09:23:31;3.07;;;2.47;;
14247;SDS011;7208;49.826;6.004;2023-03-05T09:25:57;6.60;;;3.00;;
14247;SDS011;7208;49.826;6.004;2023-03-05T09:28:23;3.43;;;2.00;;
14247;SDS011;7208;49.826;6.004;2023-03-05T09:30:49;1.97;;;1.80;;
14247;SDS011;7208;49.826;6.004;2023-03-05T09:33:15;2.13;;;1.87;;
14247;SDS011;7208;49.826;6.004;2023-03-05T09:35:41;4.10;;;1.83;;
14247;SDS011;7208;49.826;6.004;2023-03-05T09:38:07;2.83;;;1.83;;
14247;SDS011;7208;49.826;6.004;2023-03-05T09:41:16;1.50;;;1.37;;
14247;SDS011;7208;49.826;6.004;2023-03-05T09:44:10;1.70;;;1.60;;
14247;SDS011;7208;49.826;6.004;2023-03-05T09:51:04;1.77;;;1.17;;
14247;SDS011;7208;49.826;6.004;2023-03-05T09:53:37;1.73;;;1.23;;
14247;SDS011;7208;49.826;6.004;2023-03-05T09:56:24;1.47;;;1.37;;
14247;SDS011;7208;49.826;6.004;2023-03-05T09:58:52;1.30;;;1.17;;
14247;SDS011;7208;49.826;6.004;2023-03-05T10:01:22;3.00;;;1.47;;
14247;SDS011;7208;49.826;6.004;2023-03-05T10:06:23;1.87;;;1.77;;
14247;SDS011;7208;49.826;6.004;2023-03-05T10:08:57;2.07;;;1.33;;
14247;SDS011;7208;49.826;6.004;2023-03-05T10:13:53;1.50;;;1.40;;
14247;SDS011;7208;49.826;6.004;2023-03-05T10:21:17;1.23;;;1.10;;
14247;SDS011;7208;49.826;6.004;2023-03-05T10:26:34;1.33;;;1.13;;
14247;SDS011;7208;49.826;6.004;2023-03-05T10:29:07;1.10;;;1.10;;
14247;SDS011;7208;49.826;6.004;2023-03-05T10:31:39;1.00;;;1.00;;
14247;SDS011;7208;49.826;6.004;2023-03-05T10:44:36;1.13;;;0.90;;
14247;SDS011;7208;49.826;6.004;2023-03-05T10:47:10;0.80;;;0.70;;
14247;SDS011;7208;49.826;6.004;2023-03-05T10:49:38;0.90;;;0.90;;
14247;SDS011;7208;49.826;6.004;2023-03-05T10:52:12;0.70;;;0.63;;
14247;SDS011;7208;49.826;6.004;2023-03-05T10:54:40;0.83;;;0.80;;
14247;SDS011;7208;49.826;6.004;2023-03-05T10:59:36;1.63;;;0.70;;
14247;SDS011;7208;49.826;6.004;2023-03-05T11:02:03;0.60;;;0.60;;
14247;SDS011;7208;49.826;6.004;2023-03-05T11:04:31;0.97;;;0.70;;
14247;SDS011;7208;49.826;6.004;2023-03-05T11:07:00;0.60;;;0.60;;
14247;SDS011;7208;49.826;6.004;2023-03-05T11:09:30;0.93;;;0.70;;
14247;SDS011;7208;49.826;6.004;2023-03-05T11:14:32;1.43;;;0.90;;
14247;SDS011;7208;49.826;6.004;2023-03-05T11:17:00;1.80;;;0.60;;
14247;SDS011;7208;49.826;6.004;2023-03-05T11:19:27;1.10;;;0.60;;
14247;SDS011;7208;49.826;6.004;2023-03-05T11:24:40;1.40;;;0.67;;
14247;SDS011;7208;49.826;6.004;2023-03-05T11:27:28;0.60;;;0.53;;
14247;SDS011;7208;49.826;6.004;2023-03-05T11:29:56;0.47;;;0.47;;
14247;SDS011;7208;49.826;6.004;2023-03-05T11:32:23;0.93;;;0.60;;
14247;SDS011;7208;49.826;6.004;2023-03-05T11:34:50;0.50;;;0.50;;
14247;SDS011;7208;49.826;6.004;2023-03-05T11:42:54;0.73;;;0.60;;
14247;SDS011;7208;49.826;6.004;2023-03-05T11:45:21;0.97;;;0.80;;
14247;SDS011;7208;49.826;6.004;2023-03-05T11:47:50;0.60;;;0.60;;
14247;SDS011;7208;49.826;6.004;2023-03-05T12:00:30;0.80;;;0.67;;
14247;SDS011;7208;49.826;6.004;2023-03-05T12:02:57;0.70;;;0.70;;
14247;SDS011;7208;49.826;6.004;2023-03-05T12:05:25;0.67;;;0.67;;
14247;SDS011;7208;49.826;6.004;2023-03-05T12:07:53;0.80;;;0.80;;
14247;SDS011;7208;49.826;6.004;2023-03-05T12:10:21;1.00;;;0.90;;
14247;SDS011;7208;49.826;6.004;2023-03-05T12:13:05;0.67;;;0.67;;
14247;SDS011;7208;49.826;6.004;2023-03-05T12:15:42;1.27;;;0.90;;
14247;SDS011;7208;49.826;6.004;2023-03-05T12:20:48;1.17;;;1.07;;
14247;SDS011;7208;49.826;6.004;2023-03-05T12:23:17;0.97;;;0.97;;
14247;SDS011;7208;49.826;6.004;2023-03-05T12:25:45;1.00;;;1.00;;
14247;SDS011;7208;49.826;6.004;2023-03-05T12:38:44;1.30;;;0.90;;
14247;SDS011;7208;49.826;6.004;2023-03-05T12:49:00;1.60;;;1.50;;
14247;SDS011;7208;49.826;6.004;2023-03-05T12:51:36;1.13;;;1.03;;
14247;SDS011;7208;49.826;6.004;2023-03-05T12:54:24;1.03;;;1.03;;
14247;SDS011;7208;49.826;6.004;2023-03-05T12:56:52;1.00;;;1.00;;
14247;SDS011;7208;49.826;6.004;2023-03-05T12:59:19;1.27;;;1.10;;
14247;SDS011;7208;49.826;6.004;2023-03-05T13:01:46;1.10;;;1.10;;
14247;SDS011;7208;49.826;6.004;2023-03-05T13:04:16;1.00;;;1.00;;
14247;SDS011;7208;49.826;6.004;2023-03-05T13:06:45;1.37;;;1.27;;
14247;SDS011;7208;49.826;6.004;2023-03-05T13:09:18;0.90;;;0.90;;
14247;SDS011;7208;49.826;6.004;2023-03-05T13:11:48;1.20;;;1.10;;
14247;SDS011;7208;49.826;6.004;2023-03-05T13:14:25;1.20;;;1.10;;
14247;SDS011;7208;49.826;6.004;2023-03-05T13:16:52;0.90;;;0.90;;
14247;SDS011;7208;49.826;6.004;2023-03-05T13:19:18;1.20;;;1.20;;
14247;SDS011;7208;49.826;6.004;2023-03-05T13:21:44;1.10;;;1.00;;
14247;SDS011;7208;49.826;6.004;2023-03-05T13:24:17;1.20;;;1.10;;
14247;SDS011;7208;49.826;6.004;2023-03-05T13:26:44;1.30;;;1.20;;
14247;SDS011;7208;49.826;6.004;2023-03-05T13:31:41;1.40;;;1.30;;
14247;SDS011;7208;49.826;6.004;2023-03-05T13:34:21;2.00;;;1.70;;
14247;SDS011;7208;49.826;6.004;2023-03-05T13:37:14;1.70;;;1.60;;
14247;SDS011;7208;49.826;6.004;2023-03-05T13:42:34;1.33;;;1.23;;
14247;SDS011;7208;49.826;6.004;2023-03-05T13:45:05;1.57;;;1.47;;
14247;SDS011;7208;49.826;6.004;2023-03-05T13:47:32;1.50;;;1.30;;
14247;SDS011;7208;49.826;6.004;2023-03-05T13:50:03;1.63;;;1.50;;
14247;SDS011;7208;49.826;6.004;2023-03-05T13:52:36;2.13;;;1.93;;
14247;SDS011;7208;49.826;6.004;2023-03-05T13:55:13;1.70;;;1.60;;
14247;SDS011;7208;49.826;6.004;2023-03-05T13:57:41;1.97;;;1.80;;
14247;SDS011;7208;49.826;6.004;2023-03-05T14:02:53;1.83;;;1.73;;
14247;SDS011;7208;49.826;6.004;2023-03-05T14:05:19;1.63;;;1.53;;
14247;SDS011;7208;49.826;6.004;2023-03-05T14:07:47;1.90;;;1.70;;
14247;SDS011;7208;49.826;6.004;2023-03-05T14:10:27;1.90;;;1.67;;
14247;SDS011;7208;49.826;6.004;2023-03-05T14:12:54;2.87;;;1.77;;
14247;SDS011;7208;49.826;6.004;2023-03-05T14:15:21;1.80;;;1.70;;
14247;SDS011;7208;49.826;6.004;2023-03-05T14:17:48;1.80;;;1.70;;
14247;SDS011;7208;49.826;6.004;2023-03-05T14:22:52;1.57;;;1.47;;
14247;SDS011;7208;49.826;6.004;2023-03-05T14:25:26;2.87;;;1.77;;
14247;SDS011;7208;49.826;6.004;2023-03-05T14:27:53;1.50;;;1.40;;
14247;SDS011;7208;49.826;6.004;2023-03-05T14:30:19;4.80;;;3.50;;
14247;SDS011;7208;49.826;6.004;2023-03-05T14:32:46;7.77;;;5.57;;
14247;SDS011;7208;49.826;6.004;2023-03-05T14:35:20;4.87;;;4.30;;
14247;SDS011;7208;49.826;6.004;2023-03-05T14:37:48;3.40;;;3.10;;
14247;SDS011;7208;49.826;6.004;2023-03-05T14:45:14;3.30;;;2.20;;
14247;SDS011;7208;49.826;6.004;2023-03-05T14:47:40;3.70;;;2.50;;
14247;SDS011;7208;49.826;6.004;2023-03-05T14:50:07;19.37;;;9.70;;
14247;SDS011;7208;49.826;6.004;2023-03-05T14:52:33;3.27;;;2.43;;
14247;SDS011;7208;49.826;6.004;2023-03-05T14:54:59;2.13;;;2.03;;
14247;SDS011;7208;49.826;6.004;2023-03-05T14:57:26;1.93;;;1.50;;
14247;SDS011;7208;49.826;6.004;2023-03-05T14:59:53;2.07;;;1.93;;
14247;SDS011;7208;49.826;6.004;2023-03-05T15:02:20;1.80;;;1.70;;
14247;SDS011;7208;49.826;6.004;2023-03-05T15:04:47;2.13;;;1.97;;
14247;SDS011;7208;49.826;6.004;2023-03-05T15:07:29;2.20;;;2.10;;
14247;SDS011;7208;49.826;6.004;2023-03-05T15:09:56;1.70;;;1.60;;
14247;SDS011;7208;49.826;6.004;2023-03-05T15:12:23;1.70;;;1.60;;
14247;SDS011;7208;49.826;6.004;2023-03-05T15:14:50;1.83;;;1.73;;
14247;SDS011;7208;49.826;6.004;2023-03-05T15:17:18;2.00;;;1.90;;
14247;SDS011;7208;49.826;6.004;2023-03-05T15:19:44;2.17;;;1.77;;
14247;SDS011;7208;49.826;6.004;2023-03-05T15:22:11;3.43;;;1.70;;
14247;SDS011;7208;49.826;6.004;2023-03-05T15:24:37;1.73;;;1.63;;
14247;SDS011;7208;49.826;6.004;2023-03-05T15:27:04;2.00;;;1.90;;
14247;SDS011;7208;49.826;6.004;2023-03-05T15:29:30;1.73;;;1.63;;
14247;SDS011;7208;49.826;6.004;2023-03-05T15:31:56;2.00;;;1.83;;
14247;SDS011;7208;49.826;6.004;2023-03-05T15:34:22;1.90;;;1.80;;
14247;SDS011;7208;49.826;6.004;2023-03-05T15:36:48;2.23;;;2.13;;
14247;SDS011;7208;49.826;6.004;2023-03-05T15:39:14;1.80;;;1.70;;
14247;SDS011;7208;49.826;6.004;2023-03-05T15:41:40;2.10;;;1.93;;
14247;SDS011;7208;49.826;6.004;2023-03-05T15:44:06;2.20;;;2.00;;
14247;SDS011;7208;49.826;6.004;2023-03-05T15:46:33;2.40;;;2.20;;
14247;SDS011;7208;49.826;6.004;2023-03-05T15:48:59;3.10;;;2.77;;
14247;SDS011;7208;49.826;6.004;2023-03-05T15:51:26;2.43;;;2.27;;
14247;SDS011;7208;49.826;6.004;2023-03-05T15:53:52;2.67;;;1.93;;
14247;SDS011;7208;49.826;6.004;2023-03-05T15:56:18;2.30;;;2.10;;
14247;SDS011;7208;49.826;6.004;2023-03-05T15:58:44;2.03;;;1.93;;
14247;SDS011;7208;49.826;6.004;2023-03-05T16:01:13;2.30;;;2.10;;
14247;SDS011;7208;49.826;6.004;2023-03-05T16:03:39;1.70;;;1.60;;
14247;SDS011;7208;49.826;6.004;2023-03-05T16:06:05;2.10;;;1.90;;
14247;SDS011;7208;49.826;6.004;2023-03-05T16:08:33;2.10;;;1.90;;
14247;SDS011;7208;49.826;6.004;2023-03-05T16:11:00;2.40;;;2.20;;
14247;SDS011;7208;49.826;6.004;2023-03-05T16:13:26;2.20;;;2.00;;
14247;SDS011;7208;49.826;6.004;2023-03-05T16:15:53;2.67;;;2.03;;
14247;SDS011;7208;49.826;6.004;2023-03-05T16:18:20;2.57;;;2.30;;
14247;SDS011;7208;49.826;6.004;2023-03-05T16:20:46;2.23;;;2.03;;
14247;SDS011;7208;49.826;6.004;2023-03-05T16:23:12;1.80;;;1.70;;
14247;SDS011;7208;49.826;6.004;2023-03-05T16:25:38;1.80;;;1.47;;
14247;SDS011;7208;49.826;6.004;2023-03-05T16:28:04;2.10;;;1.80;;
14247;SDS011;7208;49.826;6.004;2023-03-05T16:30:31;2.20;;;2.10;;